Time;durP1;ratioP1;P1;durP2;ratioP2;P2;SDS_P1;SDS_P2;PMS_P1;PMS_P2;Temp;Humidity;BMP_temperature;BMP_pressure;BME280_temperature;BME280_humidity;BME280_pressure;Samples;Min_cycle;Max_cycle;Signal;HPM_P1;HPM_P2
2023/03/06 00:01:53;;;;;;;9.32;2.70;;;5.40;72.30;;;;;;9175760;19;20344;-63
2023/03/06 00:04:57;;;;;;;6.93;2.30;;;5.40;72.40;;;;;;9171353;19;20863;-62
2023/03/06 00:08:03;;;;;;;6.65;2.20;;;5.40;72.50;;;;;;9169380;19;20019;-63
2023/03/06 00:11:07;;;;;;;7.05;1.92;;;5.30;72.50;;;;;;9169881;19;20023;-62
2023/03/06 00:14:15;;;;;;;3.55;1.83;;;5.30;72.50;;;;;;9168670;19;20014;-62
2023/03/06 00:17:19;;;;;;;3.90;2.13;;;5.20;72.50;;;;;;9163373;19;20577;-62
2023/03/06 00:20:26;;;;;;;4.05;1.98;;;5.20;72.60;;;;;;9170206;19;20029;-62
2023/03/06 00:23:30;;;;;;;8.93;2.20;;;5.20;72.60;;;;;;9173089;19;20029;-62
2023/03/06 00:26:36;;;;;;;9.98;2.42;;;5.10;72.70;;;;;;9175393;19;20018;-62
2023/03/06 00:29:43;;;;;;;6.35;2.33;;;5.10;72.70;;;;;;9175586;19;20017;-62
2023/03/06 00:32:51;;;;;;;7.57;2.50;;;5.10;72.70;;;;;;9173829;19;20015;-62
2023/03/06 00:35:55;;;;;;;8.15;2.10;;;5.00;72.70;;;;;;9173313;19;20452;-62
2023/03/06 00:39:01;;;;;;;10.85;3.30;;;5.00;72.70;;;;;;9175390;19;20022;-62
2023/03/06 00:42:07;;;;;;;8.82;3.13;;;5.00;72.80;;;;;;9172255;19;20036;-62
2023/03/06 00:45:15;;;;;;;11.38;2.47;;;5.00;72.80;;;;;;9181877;19;20025;-62
2023/03/06 00:48:19;;;;;;;4.50;2.08;;;4.90;72.80;;;;;;9181111;19;20809;-62
2023/03/06 00:51:25;;;;;;;4.47;2.15;;;4.90;72.80;;;;;;9183069;19;20018;-62
2023/03/06 00:54:29;;;;;;;6.20;2.10;;;4.90;72.80;;;;;;9182349;19;20133;-62
2023/03/06 00:57:35;;;;;;;4.47;2.55;;;4.80;72.70;;;;;;9182607;19;20791;-62
2023/03/06 01:00:41;;;;;;;4.60;2.25;;;4.80;72.80;;;;;;9182931;19;20018;-62
2023/03/06 01:03:47;;;;;;;14.23;3.35;;;4.80;72.80;;;;;;9179420;19;20019;-62
2023/03/06 01:06:51;;;;;;;4.28;2.40;;;4.70;72.80;;;;;;9182255;19;20010;-62
2023/03/06 01:09:57;;;;;;;8.73;3.25;;;4.70;72.80;;;;;;9179033;19;20792;-62
2023/03/06 01:13:01;;;;;;;5.35;2.42;;;4.60;72.80;;;;;;9181686;19;20031;-62
2023/03/06 01:16:11;;;;;;;6.88;2.97;;;4.60;72.80;;;;;;9182499;19;20356;-62
2023/03/06 01:19:15;;;;;;;6.50;3.50;;;4.60;72.90;;;;;;9176921;19;20055;-62
2023/03/06 01:22:21;;;;;;;6.07;3.08;;;4.50;72.90;;;;;;9179748;19;20363;-62
2023/03/06 01:25:26;;;;;;;4.65;3.30;;;4.50;73.00;;;;;;9181548;19;20019;-62
2023/03/06 01:28:32;;;;;;;8.80;4.03;;;4.50;73.00;;;;;;9181425;19;20021;-62
2023/03/06 01:31:38;;;;;;;6.03;3.50;;;4.40;72.90;;;;;;9181813;19;20006;-62
2023/03/06 01:34:44;;;;;;;9.15;3.70;;;4.40;73.00;;;;;;9181987;19;20020;-62
2023/03/06 01:37:48;;;;;;;9.85;4.18;;;4.40;73.00;;;;;;9179753;19;20426;-62
2023/03/06 01:40:54;;;;;;;7.85;3.58;;;4.30;73.00;;;;;;9181060;19;20007;-62
2023/03/06 01:43:58;;;;;;;10.77;4.07;;;4.30;73.00;;;;;;9179068;19;20472;-61
2023/03/06 01:47:06;;;;;;;5.88;3.40;;;4.30;73.10;;;;;;9180219;19;20018;-61
2023/03/06 01:50:12;;;;;;;9.27;3.67;;;4.30;73.10;;;;;;9180920;19;20029;-61
2023/03/06 01:53:19;;;;;;;8.75;3.97;;;4.20;73.10;;;;;;9181225;19;20026;-62
2023/03/06 01:56:24;;;;;;;8.75;3.45;;;4.20;73.20;;;;;;9179707;19;20514;-61
2023/03/06 01:59:33;;;;;;;11.07;4.05;;;4.20;73.20;;;;;;9178943;19;20386;-62
2023/03/06 02:02:41;;;;;;;9.30;3.85;;;4.10;73.10;;;;;;9180309;19;20010;-61
2023/03/06 02:05:47;;;;;;;8.48;3.97;;;4.10;73.20;;;;;;9179301;19;20006;-61
2023/03/06 02:08:53;;;;;;;11.90;4.05;;;4.10;73.20;;;;;;9176346;19;20047;-61
2023/03/06 02:11:59;;;;;;;13.85;4.00;;;4.10;73.30;;;;;;9175904;19;20042;-62
2023/03/06 02:15:03;;;;;;;5.32;3.13;;;4.00;73.20;;;;;;9178604;19;20021;-62
2023/03/06 02:18:11;;;;;;;9.95;4.20;;;4.00;73.20;;;;;;9173225;19;20014;-61
2023/03/06 02:21:20;;;;;;;8.88;4.47;;;4.00;73.30;;;;;;9180198;19;20010;-61
2023/03/06 02:24:36;;;;;;;7.72;4.07;;;4.00;73.30;;;;;;9177393;19;20030;-61
2023/03/06 02:27:42;;;;;;;9.98;4.20;;;3.90;73.30;;;;;;9178163;19;20010;-62
2023/03/06 02:30:51;;;;;;;11.07;3.42;;;3.90;73.30;;;;;;9177850;19;20017;-62
2023/03/06 02:34:03;;;;;;;6.43;3.55;;;3.90;73.30;;;;;;9177633;19;20014;-61
2023/03/06 02:37:26;;;;;;;10.93;3.53;;;3.90;73.40;;;;;;9179756;19;20030;-61
2023/03/06 02:40:31;;;;;;;10.27;3.92;;;3.90;73.50;;;;;;9177891;19;20036;-61
2023/03/06 02:43:41;;;;;;;10.98;3.83;;;3.90;73.50;;;;;;9177507;19;20359;-61
2023/03/06 02:46:45;;;;;;;7.85;3.20;;;3.80;73.50;;;;;;9177658;19;20047;-61
2023/03/06 02:49:51;;;;;;;11.48;3.70;;;3.90;73.60;;;;;;9177857;19;20014;-61
2023/03/06 02:52:56;;;;;;;8.65;3.05;;;3.80;73.60;;;;;;9179569;19;21227;-61
2023/03/06 02:56:02;;;;;;;4.97;2.85;;;3.80;73.60;;;;;;9177348;19;20051;-61
2023/03/06 02:59:08;;;;;;;6.57;2.97;;;3.80;73.60;;;;;;9177690;19;20026;-61
2023/03/06 03:02:14;;;;;;;8.10;3.25;;;3.80;73.70;;;;;;9176868;19;20018;-61
2023/03/06 03:05:20;;;;;;;6.55;3.10;;;3.80;73.70;;;;;;9173738;19;20047;-61
2023/03/06 03:08:34;;;;;;;5.43;3.40;;;3.80;73.80;;;;;;9173165;19;20021;-61
2023/03/06 03:11:39;;;;;;;6.38;3.60;;;3.80;73.80;;;;;;9178426;19;20015;-61
2023/03/06 03:14:47;;;;;;;6.80;3.10;;;3.80;73.80;;;;;;9176366;19;20014;-61
2023/03/06 03:17:51;;;;;;;5.05;3.33;;;3.80;73.80;;;;;;9171212;19;20006;-61
2023/03/06 03:20:58;;;;;;;8.13;3.60;;;3.80;73.80;;;;;;9176749;19;20014;-61
2023/03/06 03:24:02;;;;;;;10.63;3.58;;;3.80;73.90;;;;;;9176363;19;20014;-61
2023/03/06 03:27:08;;;;;;;7.90;3.78;;;3.70;73.80;;;;;;9178037;19;20010;-61
2023/03/06 03:30:15;;;;;;;9.88;4.03;;;3.70;73.90;;;;;;9176708;19;20011;-61
2023/03/06 03:33:21;;;;;;;6.65;4.03;;;3.70;74.00;;;;;;9177625;19;20361;-62
2023/03/06 03:36:26;;;;;;;6.45;3.53;;;3.70;74.00;;;;;;9175818;19;20440;-61
2023/03/06 03:39:33;;;;;;;9.40;3.35;;;3.70;74.00;;;;;;9175481;19;20496;-61
2023/03/06 03:42:39;;;;;;;16.50;4.22;;;3.70;74.00;;;;;;9174674;19;20100;-61
2023/03/06 03:45:48;;;;;;;8.95;3.33;;;3.70;74.00;;;;;;9177004;19;20018;-61
2023/03/06 03:48:52;;;;;;;6.30;3.30;;;3.70;74.10;;;;;;9175973;19;20014;-62
2023/03/06 03:51:58;;;;;;;9.82;3.75;;;3.70;74.10;;;;;;9176992;19;20010;-61
2023/03/06 03:55:06;;;;;;;6.65;3.70;;;3.70;74.10;;;;;;9175162;19;20028;-61
2023/03/06 03:58:13;;;;;;;5.78;3.40;;;3.70;74.20;;;;;;9174963;19;20018;-61
2023/03/06 04:01:19;;;;;;;6.50;3.33;;;3.70;74.20;;;;;;9175656;19;20527;-61
2023/03/06 04:04:25;;;;;;;6.38;3.63;;;3.70;74.30;;;;;;9170058;19;20025;-60
2023/03/06 04:07:29;;;;;;;7.60;3.83;;;3.70;74.20;;;;;;9174896;19;20014;-61
2023/03/06 04:10:37;;;;;;;8.80;3.45;;;3.70;74.30;;;;;;9174586;19;20018;-61
2023/03/06 04:13:43;;;;;;;12.18;3.58;;;3.70;74.30;;;;;;9174069;19;20021;-62
2023/03/06 04:16:51;;;;;;;8.73;3.47;;;3.70;74.30;;;;;;9170228;19;20274;-61
2023/03/06 04:19:55;;;;;;;7.22;3.58;;;3.70;74.40;;;;;;9184012;19;20516;-61
2023/03/06 04:23:01;;;;;;;6.10;3.53;;;3.70;74.40;;;;;;9182458;19;20023;-61
2023/03/06 04:26:06;;;;;;;13.73;3.70;;;3.70;74.40;;;;;;9183913;19;20475;-62
2023/03/06 04:29:12;;;;;;;9.65;3.50;;;3.70;74.50;;;;;;9182750;19;20018;-61
2023/03/06 04:32:18;;;;;;;6.65;3.50;;;3.70;74.40;;;;;;9182986;19;20018;-61
2023/03/06 04:35:27;;;;;;;8.35;3.13;;;3.70;74.50;;;;;;9182107;19;20011;-61
2023/03/06 04:38:36;;;;;;;4.70;2.58;;;3.70;74.50;;;;;;9181796;19;20086;-61
2023/03/06 04:41:44;;;;;;;9.15;3.80;;;3.80;74.50;;;;;;9182116;19;20364;-61
2023/03/06 04:44:48;;;;;;;7.95;3.03;;;3.70;74.60;;;;;;9181927;19;20014;-61
2023/03/06 04:47:56;;;;;;;8.77;3.17;;;3.80;74.60;;;;;;9183354;19;20419;-61
2023/03/06 04:51:00;;;;;;;4.82;3.35;;;3.80;74.70;;;;;;9182668;19;20042;-60
2023/03/06 04:54:06;;;;;;;8.07;4.07;;;3.80;74.70;;;;;;9183292;19;20023;-61
2023/03/06 04:57:12;;;;;;;7.57;2.72;;;3.80;74.70;;;;;;9183355;19;20918;-61
2023/03/06 05:00:21;;;;;;;5.88;3.22;;;3.80;74.80;;;;;;9179216;19;20102;-61
2023/03/06 05:03:27;;;;;;;5.95;3.50;;;3.80;74.80;;;;;;9182024;19;20010;-61
2023/03/06 05:06:33;;;;;;;5.07;3.10;;;3.80;74.80;;;;;;9181959;19;20019;-62
2023/03/06 05:09:37;;;;;;;6.65;3.25;;;3.80;74.80;;;;;;9179802;19;20025;-62
2023/03/06 05:12:45;;;;;;;7.50;3.30;;;3.80;74.80;;;;;;9182653;19;20277;-62
2023/03/06 05:15:49;;;;;;;8.85;3.10;;;3.90;74.90;;;;;;9183600;19;20014;-62
2023/03/06 05:18:57;;;;;;;4.72;3.20;;;3.90;74.90;;;;;;9176711;19;20021;-62
2023/03/06 05:22:01;;;;;;;6.03;3.45;;;3.90;74.90;;;;;;9180282;19;20014;-61
2023/03/06 05:25:07;;;;;;;8.18;3.20;;;3.90;75.00;;;;;;9179532;19;20015;-62
2023/03/06 05:28:11;;;;;;;9.05;4.03;;;3.90;75.10;;;;;;9181729;19;20101;-61
2023/03/06 05:31:17;;;;;;;8.20;3.33;;;3.90;75.00;;;;;;9178297;19;20013;-61
2023/03/06 05:34:23;;;;;;;8.10;3.40;;;3.90;75.00;;;;;;9181301;19;20582;-62
2023/03/06 05:37:29;;;;;;;6.78;3.17;;;3.90;75.10;;;;;;9181863;19;20329;-61
2023/03/06 05:40:33;;;;;;;5.35;3.25;;;3.90;75.20;;;;;;9180359;19;20014;-61
2023/03/06 05:43:39;;;;;;;6.35;3.15;;;3.90;75.20;;;;;;9179103;19;20376;-61
2023/03/06 05:46:43;;;;;;;10.80;3.92;;;3.90;75.20;;;;;;9181231;19;20380;-62
2023/03/06 05:49:52;;;;;;;6.68;3.85;;;3.90;75.20;;;;;;9180799;19;20006;-62
2023/03/06 05:52:56;;;;;;;5.18;3.25;;;3.90;75.20;;;;;;9178876;19;20037;-61
2023/03/06 05:56:04;;;;;;;4.70;3.42;;;3.90;75.20;;;;;;9178114;19;20029;-62
2023/03/06 05:59:08;;;;;;;6.80;3.45;;;3.90;75.30;;;;;;9179087;19;20017;-62
2023/03/06 06:02:14;;;;;;;7.22;3.03;;;3.90;75.30;;;;;;9179484;19;20014;-61
2023/03/06 06:05:20;;;;;;;7.00;3.97;;;4.00;75.40;;;;;;9176935;19;20022;-62
2023/03/06 06:08:26;;;;;;;6.20;3.53;;;3.90;75.40;;;;;;9176635;19;20015;-61
2023/03/06 06:11:30;;;;;;;;;;;3.90;75.40;;;;;;9180660;19;20025;-61
2023/03/06 06:14:36;;;;;;;7.15;3.60;;;3.90;75.40;;;;;;9179227;19;19926;-61
2023/03/06 06:17:40;;;;;;;8.38;3.85;;;3.90;75.30;;;;;;9173135;19;20483;-61
2023/03/06 06:20:48;;;;;;;6.82;3.67;;;4.00;75.40;;;;;;9180033;19;20014;-61
2023/03/06 06:23:52;;;;;;;9.55;5.13;;;4.00;75.50;;;;;;9177872;19;20018;-61
2023/03/06 06:26:59;;;;;;;6.70;3.92;;;4.00;75.50;;;;;;9180088;19;20025;-61
2023/03/06 06:30:09;;;;;;;7.20;3.83;;;4.00;75.60;;;;;;9178073;19;20022;-61
2023/03/06 06:33:15;;;;;;;5.82;3.33;;;3.90;75.60;;;;;;9179630;19;20467;-62
2023/03/06 06:36:22;;;;;;;6.38;3.45;;;4.00;76.20;;;;;;9179751;19;20010;-62
2023/03/06 06:39:28;;;;;;;6.18;3.60;;;4.00;75.60;;;;;;9180029;19;20019;-62
2023/03/06 06:42:33;;;;;;;11.30;4.25;;;4.00;75.60;;;;;;9175920;19;20014;-62
2023/03/06 06:45:45;;;;;;;5.85;3.45;;;4.00;75.70;;;;;;9176351;19;20010;-62
2023/03/06 06:48:49;;;;;;;;;;;4.00;75.70;;;;;;9180065;19;20015;-62
2023/03/06 06:51:57;;;;;;;9.57;3.83;;;4.10;75.70;;;;;;9176088;19;20356;-62
2023/03/06 06:55:01;;;;;;;8.38;3.65;;;4.00;75.60;;;;;;9177471;19;20139;-62
2023/03/06 06:58:07;;;;;;;6.78;3.40;;;4.10;75.70;;;;;;9178635;19;20033;-62
2023/03/06 07:01:13;;;;;;;5.28;3.45;;;4.00;75.70;;;;;;9178537;19;20048;-62
2023/03/06 07:04:19;;;;;;;6.32;4.07;;;4.10;75.90;;;;;;9176167;19;20018;-62
2023/03/06 07:07:26;;;;;;;10.38;3.83;;;4.10;75.80;;;;;;9174405;19;20018;-61
2023/03/06 07:10:32;;;;;;;7.38;3.83;;;4.10;75.80;;;;;;9174275;19;20014;-60
2023/03/06 07:13:36;;;;;;;7.93;3.75;;;4.10;75.90;;;;;;9163343;19;20014;-61
2023/03/06 07:16:42;;;;;;;14.63;5.03;;;4.10;75.90;;;;;;9166432;19;20110;-62
2023/03/06 07:19:46;;;;;;;16.85;5.03;;;4.20;76.00;;;;;;9172656;19;20022;-62
2023/03/06 07:22:54;;;;;;;8.15;4.35;;;4.20;76.70;;;;;;9165617;19;20018;-62
2023/03/06 07:25:59;;;;;;;9.73;4.43;;;4.20;76.10;;;;;;9167129;19;20037;-62
2023/03/06 07:29:05;;;;;;;11.00;4.53;;;4.30;76.20;;;;;;9170251;19;20018;-61
2023/03/06 07:32:09;;;;;;;6.10;4.13;;;4.20;76.10;;;;;;9169804;19;20025;-61
2023/03/06 07:35:17;;;;;;;8.45;3.83;;;4.30;76.20;;;;;;9169929;19;20018;-61
2023/03/06 07:38:27;;;;;;;4.93;3.55;;;4.30;76.20;;;;;;9176251;19;20497;-61
2023/03/06 07:41:34;;;;;;;6.30;3.60;;;4.30;76.20;;;;;;9174477;19;20021;-62
2023/03/06 07:44:38;;;;;;;6.75;3.60;;;4.30;76.80;;;;;;9174974;19;20015;-62
2023/03/06 07:47:44;;;;;;;5.55;3.50;;;4.30;76.20;;;;;;9171874;19;20492;-62
2023/03/06 07:50:56;;;;;;;5.65;3.33;;;4.30;76.20;;;;;;9176243;19;20023;-62
2023/03/06 07:54:04;;;;;;;;;;;4.30;76.30;;;;;;9182787;19;20017;-62
2023/03/06 07:57:08;;;;;;;5.90;3.60;;;4.30;76.30;;;;;;9184761;19;19942;-62
2023/03/06 08:00:16;;;;;;;11.02;4.03;;;4.40;76.20;;;;;;9184335;19;20025;-62
2023/03/06 08:03:20;;;;;;;8.25;3.38;;;4.40;76.30;;;;;;9182646;19;20519;-61
2023/03/06 08:06:28;;;;;;;6.45;3.65;;;4.40;76.30;;;;;;9172483;19;20034;-62
2023/03/06 08:09:35;;;;;;;8.13;4.30;;;4.40;76.40;;;;;;9171352;19;20526;-62
2023/03/06 08:12:41;;;;;;;6.65;3.80;;;4.50;76.50;;;;;;9180236;19;20499;-62
2023/03/06 08:15:49;;;;;;;7.93;4.63;;;4.50;76.50;;;;;;9183773;19;20022;-61
2023/03/06 08:18:55;;;;;;;9.45;4.35;;;4.50;76.60;;;;;;9179495;19;20018;-61
2023/03/06 08:21:59;;;;;;;6.85;4.32;;;4.60;76.70;;;;;;9184012;19;20018;-61
2023/03/06 08:25:08;;;;;;;6.78;4.18;;;4.70;76.80;;;;;;9180923;19;20025;-61
2023/03/06 08:28:12;;;;;;;7.28;3.88;;;4.70;76.90;;;;;;9173026;19;20018;-61
2023/03/06 08:31:29;;;;;;;5.60;3.72;;;4.80;77.00;;;;;;9174067;19;20043;-62
2023/03/06 08:34:33;;;;;;;6.50;4.30;;;4.90;77.10;;;;;;9177930;19;20365;-62
2023/03/06 08:37:39;;;;;;;4.82;3.15;;;5.00;77.10;;;;;;9181424;19;20014;-61
2023/03/06 08:40:47;;;;;;;7.28;2.97;;;5.20;77.10;;;;;;9182552;19;20022;-61
2023/03/06 08:43:53;;;;;;;4.95;3.10;;;5.30;77.10;;;;;;9178165;19;20021;-61
2023/03/06 08:46:57;;;;;;;1.90;1.75;;;5.40;77.10;;;;;;9181473;19;20379;-61
2023/03/06 08:50:03;;;;;;;2.30;1.30;;;5.50;77.10;;;;;;9183111;19;20074;-61
2023/03/06 08:53:07;;;;;;;2.35;1.40;;;5.50;76.90;;;;;;9182184;19;20046;-62
2023/03/06 08:56:19;;;;;;;2.05;1.83;;;5.60;76.90;;;;;;9179841;19;20348;-61
2023/03/06 08:59:23;;;;;;;1.08;0.95;;;5.70;76.80;;;;;;9176089;19;20014;-61
2023/03/06 09:02:30;;;;;;;1.30;0.80;;;5.70;76.70;;;;;;9176670;19;20569;-62
2023/03/06 09:05:34;;;;;;;0.82;0.60;;;5.80;76.70;;;;;;9166962;19;20027;-60
2023/03/06 09:08:41;;;;;;;0.75;0.75;;;5.80;76.80;;;;;;9168284;19;20047;-60
2023/03/06 09:11:49;;;;;;;0.70;0.70;;;6.00;77.00;;;;;;9168831;19;20023;-60
2023/03/06 09:14:56;;;;;;;1.00;0.80;;;6.10;77.00;;;;;;9170614;19;20011;-60
2023/03/06 09:18:00;;;;;;;;;;;6.30;77.10;;;;;;9167880;19;20014;-60
2023/03/06 09:21:07;;;;;;;1.88;0.70;;;6.40;77.00;;;;;;9168394;19;20293;-59
2023/03/06 09:24:11;;;;;;;0.47;0.47;;;6.60;76.90;;;;;;9172255;19;20090;-61
2023/03/06 09:27:21;;;;;;;2.75;0.93;;;6.70;76.80;;;;;;9175045;19;20021;-60
2023/03/06 09:30:25;;;;;;;2.25;0.90;;;6.90;76.80;;;;;;9174332;19;20357;-61
2023/03/06 09:33:32;;;;;;;3.63;0.75;;;7.00;76.60;;;;;;9173260;19;20006;-61
2023/03/06 09:36:36;;;;;;;;;;;7.20;76.60;;;;;;9175787;19;20134;-61
2023/03/06 09:40:00;;;;;;;4.47;1.00;;;7.40;76.50;;;;;;9171158;19;19919;-61
2023/03/06 09:43:06;;;;;;;;;;;7.60;76.40;;;;;;9173559;19;20085;-61
2023/03/06 09:46:22;;;;;;;1.27;0.60;;;7.80;76.30;;;;;;9171762;19;19925;-61
2023/03/06 09:49:44;;;;;;;1.33;0.73;;;7.90;76.10;;;;;;9175683;19;20539;-62
2023/03/06 09:53:03;;;;;;;0.77;0.60;;;8.10;75.90;;;;;;9176991;19;20487;-61
2023/03/06 09:56:15;;;;;;;2.28;0.90;;;8.20;75.70;;;;;;9178751;19;20085;-62
2023/03/06 09:59:25;;;;;;;3.20;0.73;;;8.30;75.50;;;;;;9178446;19;20015;-62
2023/03/06 10:02:38;;;;;;;1.30;0.82;;;8.40;75.40;;;;;;9180404;19;20015;-61
2023/03/06 10:05:48;;;;;;;3.08;0.77;;;8.50;75.20;;;;;;9178505;19;20011;-61
2023/03/06 10:08:58;;;;;;;6.50;1.10;;;8.50;75.00;;;;;;9177886;19;20037;-61
2023/03/06 10:12:11;;;;;;;2.65;0.93;;;8.60;74.80;;;;;;9178639;19;20010;-62
2023/03/06 10:15:24;;;;;;;1.58;0.75;;;8.70;74.70;;;;;;9179100;19;20014;-61
2023/03/06 10:18:29;;;;;;;6.15;1.10;;;8.70;74.60;;;;;;9173008;19;20018;-61
2023/03/06 10:21:43;;;;;;;;;;;8.80;74.60;;;;;;9169523;19;20022;-60
2023/03/06 10:24:54;;;;;;;2.15;0.90;;;8.80;74.50;;;;;;9165364;19;19934;-67
2023/03/06 10:28:13;;;;;;;5.60;1.00;;;8.90;74.50;;;;;;9166591;19;20425;-60
2023/03/06 10:31:26;;;;;;;1.92;1.00;;;8.90;74.30;;;;;;9168547;19;20026;-61
2023/03/06 10:34:33;;;;;;;3.58;0.85;;;9.00;74.10;;;;;;9172739;19;20573;-61
2023/03/06 10:37:39;;;;;;;2.00;0.77;;;9.00;74.10;;;;;;9162377;19;20015;-61
2023/03/06 10:40:52;;;;;;;6.38;0.70;;;9.10;74.00;;;;;;9172774;19;20217;-61
2023/03/06 10:44:22;;;;;;;4.15;0.88;;;9.20;74.50;;;;;;9174537;19;20026;-61
2023/03/06 10:47:33;;;;;;;3.45;0.90;;;9.30;73.60;;;;;;9176367;19;20384;-61
2023/03/06 10:50:39;;;;;;;4.10;0.80;;;9.40;73.50;;;;;;9179130;19;20021;-61
2023/03/06 10:53:49;;;;;;;;;;;9.40;73.50;;;;;;9179865;19;20022;-60
2023/03/06 10:56:55;;;;;;;2.75;1.23;;;9.50;73.40;;;;;;9176165;19;20354;-60
2023/03/06 11:00:03;;;;;;;;;;;9.60;73.50;;;;;;9175364;19;20029;-61
2023/03/06 11:03:22;;;;;;;3.40;0.80;;;9.70;73.30;;;;;;9175585;19;19979;-60
2023/03/06 11:06:34;;;;;;;4.57;1.00;;;9.70;73.10;;;;;;9172379;19;20023;-61
2023/03/06 11:09:40;;;;;;;1.48;0.60;;;9.80;73.00;;;;;;9171248;19;20010;-61
2023/03/06 11:12:56;;;;;;;2.67;0.70;;;9.80;72.90;;;;;;9174138;19;20070;-60
2023/03/06 11:16:06;;;;;;;2.97;0.55;;;9.90;72.70;;;;;;9173647;19;20022;-61
2023/03/06 11:19:21;;;;;;;2.50;0.40;;;9.90;72.50;;;;;;9166635;19;20361;-60
2023/03/06 11:22:27;;;;;;;4.95;0.90;;;9.90;72.20;;;;;;9177589;19;20029;-61
2023/03/06 11:25:34;;;;;;;;;;;10.00;72.30;;;;;;9177161;19;20575;-61
2023/03/06 11:28:44;;;;;;;2.35;0.60;;;10.00;72.30;;;;;;9174295;19;19919;-62
2023/03/06 11:31:53;;;;;;;1.98;0.65;;;10.10;72.40;;;;;;9177158;19;20353;-61
2023/03/06 11:35:05;;;;;;;3.53;0.60;;;10.20;72.20;;;;;;9177748;19;20034;-61
2023/03/06 11:38:15;;;;;;;0.40;0.30;;;10.30;71.90;;;;;;9175382;19;20078;-61
2023/03/06 11:41:30;;;;;;;0.65;0.47;;;10.30;71.70;;;;;;9167156;19;20018;-61
2023/03/06 11:44:48;;;;;;;1.00;0.55;;;10.40;71.50;;;;;;9166481;19;20018;-62
2023/03/06 11:48:02;;;;;;;2.97;0.65;;;10.40;71.20;;;;;;9167539;19;20014;-63
2023/03/06 11:51:15;;;;;;;0.30;0.30;;;10.50;71.20;;;;;;9167737;19;20025;-62
2023/03/06 11:54:21;;;;;;;5.20;1.60;;;10.50;70.90;;;;;;9167907;19;20022;-63
2023/03/06 11:57:32;;;;;;;2.67;0.93;;;10.60;71.00;;;;;;9168876;19;20067;-62
2023/03/06 12:00:49;;;;;;;3.27;0.70;;;10.60;70.70;;;;;;9173805;19;20017;-63
2023/03/06 12:04:02;;;;;;;0.50;0.50;;;10.50;70.40;;;;;;9165637;19;20011;-62
2023/03/06 12:07:22;;;;;;;1.80;1.13;;;10.50;70.40;;;;;;9169224;19;20014;-62
2023/03/06 12:10:36;;;;;;;4.60;1.27;;;10.50;70.00;;;;;;9157837;19;20395;-62
2023/03/06 12:14:03;;;;;;;1.08;0.50;;;10.50;70.20;;;;;;9166163;19;20022;-62
2023/03/06 12:17:16;;;;;;;6.13;0.80;;;10.40;69.80;;;;;;9167737;19;20010;-62
2023/03/06 12:20:40;;;;;;;0.90;0.60;;;10.40;70.00;;;;;;9169034;19;20015;-62
2023/03/06 12:24:10;;;;;;;3.70;0.95;;;10.40;69.90;;;;;;9170315;19;20022;-65
2023/03/06 12:27:23;;;;;;;3.58;0.88;;;10.30;69.60;;;;;;9153708;19;20018;-65
2023/03/06 12:31:00;;;;;;;2.65;0.60;;;10.20;69.70;;;;;;9159541;19;20011;-64
2023/03/06 12:34:19;;;;;;;5.40;1.38;;;10.10;69.40;;;;;;9163539;19;21063;-65
2023/03/06 12:37:36;;;;;;;3.92;0.50;;;10.00;69.60;;;;;;9165338;19;20018;-64
2023/03/06 12:40:59;;;;;;;5.13;1.27;;;10.00;69.60;;;;;;9179544;19;20052;-66
2023/03/06 12:44:37;;;;;;;2.08;1.00;;;9.90;69.40;;;;;;9179880;19;20018;-65
2023/03/06 12:47:47;;;;;;;2.92;0.73;;;9.80;69.20;;;;;;9173965;19;20011;-65
2023/03/06 12:50:52;;;;;;;3.47;0.60;;;9.80;69.50;;;;;;9174048;19;21547;-66
2023/03/06 12:53:59;;;;;;;0.55;0.50;;;9.70;69.50;;;;;;9174091;19;20344;-66
2023/03/06 12:57:10;;;;;;;2.50;0.60;;;9.70;69.50;;;;;;9171841;19;20488;-69
2023/03/06 13:00:45;;;;;;;1.38;0.68;;;9.60;69.30;;;;;;9177241;19;20006;-65
2023/03/06 13:04:12;;;;;;;0.88;0.43;;;9.60;69.20;;;;;;9178066;19;20014;-65
2023/03/06 13:07:29;;;;;;;1.17;0.52;;;9.50;69.30;;;;;;9173945;19;20014;-65
2023/03/06 13:10:34;;;;;;;2.42;0.60;;;9.50;69.40;;;;;;9179138;19;20018;-65
2023/03/06 13:13:45;;;;;;;2.53;1.08;;;9.50;69.40;;;;;;9178960;19;20019;-65
2023/03/06 13:16:49;;;;;;;0.60;0.45;;;9.50;69.20;;;;;;9173511;19;20022;-65
2023/03/06 13:20:25;;;;;;;2.63;0.60;;;9.40;69.10;;;;;;9176265;19;20010;-65
2023/03/06 13:23:49;;;;;;;2.78;0.80;;;9.50;68.80;;;;;;9178347;19;20088;-65
2023/03/06 13:26:57;;;;;;;0.63;0.63;;;9.40;68.70;;;;;;9171014;19;20483;-65
2023/03/06 13:30:21;;;;;;;3.97;0.85;;;9.40;68.90;;;;;;9170300;19;20345;-65
2023/03/06 13:33:52;;;;;;;0.65;0.55;;;9.40;68.70;;;;;;9175258;19;20810;-65
2023/03/06 13:37:36;;;;;;;2.60;0.85;;;9.30;68.60;;;;;;9174715;19;20041;-65
2023/03/06 13:40:45;;;;;;;1.60;0.65;;;9.40;68.50;;;;;;9171971;19;20014;-64
2023/03/06 13:43:50;;;;;;;1.08;0.70;;;9.30;68.70;;;;;;9172753;19;20721;-65
2023/03/06 13:46:59;;;;;;;2.88;0.80;;;9.30;68.70;;;;;;9172578;19;20044;-65
2023/03/06 13:50:18;;;;;;;1.13;0.50;;;9.30;68.70;;;;;;9172319;19;20022;-65
2023/03/06 13:53:46;;;;;;;0.65;0.63;;;9.30;68.50;;;;;;9176914;19;20013;-64
2023/03/06 13:57:28;;;;;;;0.93;0.55;;;9.30;68.50;;;;;;9174875;19;20050;-64
2023/03/06 14:01:06;;;;;;;0.93;0.60;;;9.30;68.30;;;;;;9174494;19;20007;-64
2023/03/06 14:04:33;;;;;;;0.82;0.50;;;9.30;68.40;;;;;;9175249;19;20379;-64
2023/03/06 14:07:42;;;;;;;1.45;0.70;;;9.30;68.40;;;;;;9174964;19;20010;-65
2023/03/06 14:10:48;;;;;;;0.70;0.60;;;9.30;68.50;;;;;;9175399;19;20026;-64
2023/03/06 14:13:56;;;;;;;1.67;1.13;;;9.30;68.40;;;;;;9172990;19;20043;-64
2023/03/06 14:17:04;;;;;;;0.90;0.80;;;9.30;68.30;;;;;;9169980;19;20014;-64
2023/03/06 14:20:15;;;;;;;2.53;1.15;;;9.20;68.20;;;;;;9174910;19;20011;-64
2023/03/06 14:23:32;;;;;;;3.25;0.93;;;9.30;68.00;;;;;;9168624;19;20091;-64
2023/03/06 14:26:44;;;;;;;2.78;0.55;;;9.20;67.80;;;;;;9172188;19;20010;-64
2023/03/06 14:29:48;;;;;;;2.67;0.55;;;9.20;67.90;;;;;;9173349;19;20019;-64
2023/03/06 14:32:57;;;;;;;2.15;0.77;;;9.20;67.90;;;;;;9174567;19;20013;-64
2023/03/06 14:36:03;;;;;;;0.90;0.40;;;9.20;67.70;;;;;;9174300;19;20023;-64
2023/03/06 14:39:13;;;;;;;3.72;0.90;;;9.20;67.70;;;;;;9173727;19;20010;-64
2023/03/06 14:42:19;;;;;;;0.95;0.75;;;9.20;67.60;;;;;;9173584;19;20022;-64
2023/03/06 14:45:25;;;;;;;2.38;0.63;;;9.20;67.70;;;;;;9170094;19;20112;-64
2023/03/06 14:48:43;;;;;;;0.57;0.55;;;9.20;67.60;;;;;;9172459;19;20075;-65
2023/03/06 14:51:51;;;;;;;1.23;0.60;;;9.10;67.20;;;;;;9172726;19;20360;-65
2023/03/06 14:54:55;;;;;;;1.17;0.55;;;9.20;67.40;;;;;;9174021;19;20026;-61
2023/03/06 14:58:05;;;;;;;1.42;0.63;;;9.10;67.40;;;;;;9172889;19;20480;-61
2023/03/06 15:01:12;;;;;;;1.27;0.55;;;9.10;67.30;;;;;;9171423;19;20042;-61
2023/03/06 15:04:26;;;;;;;3.38;0.73;;;9.20;67.30;;;;;;9169562;19;20490;-61
2023/03/06 15:07:34;;;;;;;1.73;0.68;;;9.20;67.10;;;;;;9168208;19;20026;-60
2023/03/06 15:10:42;;;;;;;1.65;0.55;;;9.10;67.20;;;;;;9172265;19;20011;-62
2023/03/06 15:14:01;;;;;;;2.40;0.63;;;9.10;67.20;;;;;;9172114;19;20492;-62
2023/03/06 15:17:25;;;;;;;0.50;0.47;;;9.10;66.90;;;;;;9165862;19;20010;-62
2023/03/06 15:20:48;;;;;;;4.60;0.63;;;9.10;66.90;;;;;;9171433;19;20376;-62
2023/03/06 15:23:55;;;;;;;14.40;5.53;;;9.10;66.90;;;;;;9170175;19;20010;-61
2023/03/06 15:27:02;;;;;;;2.05;1.00;;;9.10;67.10;;;;;;9168389;19;20024;-62
2023/03/06 15:30:14;;;;;;;1.42;0.82;;;9.10;67.00;;;;;;9170381;19;20010;-62
2023/03/06 15:33:25;;;;;;;2.47;0.88;;;9.10;67.00;;;;;;9171823;19;20613;-62
2023/03/06 15:36:34;;;;;;;3.00;1.23;;;9.10;66.90;;;;;;9171869;19;20025;-62
2023/03/06 15:39:42;;;;;;;1.45;0.98;;;9.10;66.90;;;;;;9173058;19;20023;-62
2023/03/06 15:42:48;;;;;;;2.33;0.93;;;9.10;66.80;;;;;;9172129;19;20363;-62
2023/03/06 15:45:58;;;;;;;1.13;0.70;;;9.00;66.70;;;;;;9168598;19;20011;-62
2023/03/06 15:49:05;;;;;;;0.88;0.75;;;9.00;66.70;;;;;;9170395;19;20029;-62
2023/03/06 15:52:11;;;;;;;3.92;0.80;;;8.90;66.70;;;;;;9171348;19;20022;-62
2023/03/06 15:55:19;;;;;;;2.92;1.00;;;8.90;66.60;;;;;;9171472;19;20081;-62
2023/03/06 15:58:25;;;;;;;2.92;0.98;;;8.90;66.70;;;;;;9169340;19;20048;-62
2023/03/06 16:01:31;;;;;;;3.50;1.10;;;8.90;66.70;;;;;;9169117;19;20011;-61
2023/03/06 16:04:35;;;;;;;1.60;0.77;;;8.80;67.30;;;;;;9171714;19;20019;-62
2023/03/06 16:07:43;;;;;;;2.60;1.00;;;8.80;66.70;;;;;;9164356;19;20026;-61
2023/03/06 16:10:49;;;;;;;1.10;0.82;;;8.70;66.60;;;;;;9172694;19;20117;-61
2023/03/06 16:13:57;;;;;;;1.67;0.73;;;8.70;66.60;;;;;;9173592;19;20015;-62
2023/03/06 16:17:01;;;;;;;1.60;1.00;;;8.60;66.60;;;;;;9175459;19;20074;-62
2023/03/06 16:20:14;;;;;;;2.42;1.08;;;8.60;66.60;;;;;;9181293;19;20359;-62
2023/03/06 16:23:20;;;;;;;1.40;0.70;;;8.60;66.60;;;;;;9180402;19;20356;-62
2023/03/06 16:26:30;;;;;;;1.58;0.70;;;8.60;66.60;;;;;;9178380;19;20022;-62
2023/03/06 16:29:34;;;;;;;5.65;1.15;;;8.60;66.60;;;;;;9179151;19;20022;-62
2023/03/06 16:32:40;;;;;;;2.80;1.17;;;8.50;66.60;;;;;;9178337;19;20010;-61
2023/03/06 16:35:46;;;;;;;3.25;0.90;;;8.50;66.60;;;;;;9179996;19;20114;-61
2023/03/06 16:38:54;;;;;;;2.38;1.17;;;8.50;66.60;;;;;;9175423;19;20022;-60